createdAt,value
2022-09-11T00:01:03.838Z,100.00
2022-09-11T00:03:32.029Z,100.00
2022-09-11T00:06:03.967Z,100.00
2022-09-11T00:08:32.846Z,100.00
2022-09-11T00:11:05.890Z,100.00
2022-09-11T00:13:36.233Z,100.00
2022-09-11T00:16:05.879Z,100.00
2022-09-11T00:18:36.039Z,100.00
2022-09-11T00:21:08.033Z,100.00
2022-09-11T00:23:36.702Z,100.00
2022-09-11T00:26:06.293Z,100.00
2022-09-11T00:28:37.103Z,100.00
2022-09-11T00:31:07.513Z,100.00
2022-09-11T00:33:37.510Z,100.00
2022-09-11T00:36:07.986Z,100.00
2022-09-11T00:38:37.482Z,100.00
2022-09-11T00:41:08.708Z,100.00
2022-09-11T00:44:00.764Z,100.00
2022-09-11T00:46:43.186Z,100.00
2022-09-11T00:49:20.068Z,100.00
2022-09-11T00:51:53.513Z,100.00
2022-09-11T00:54:25.963Z,100.00
2022-09-11T00:56:55.637Z,100.00
2022-09-11T00:59:28.838Z,100.00
2022-09-11T01:01:56.985Z,100.00
2022-09-11T01:04:25.175Z,100.00
2022-09-11T01:06:56.602Z,100.00
2022-09-11T01:09:24.854Z,100.00
2022-09-11T01:12:04.922Z,100.00
2022-09-11T01:14:44.884Z,100.00
2022-09-11T01:17:22.806Z,100.00
2022-09-11T01:20:34.139Z,100.00
2022-09-11T01:23:23.366Z,100.00
2022-09-11T01:26:10.498Z,100.00
2022-09-11T01:28:46.797Z,100.00
2022-09-11T01:31:21.671Z,100.00
2022-09-11T01:33:54.690Z,100.00
2022-09-11T01:36:29.290Z,100.00
2022-09-11T01:39:00.474Z,100.00
2022-09-11T01:41:33.334Z,100.00
2022-09-11T01:44:07.042Z,100.00
2022-09-11T01:46:37.606Z,100.00
2022-09-11T01:49:11.514Z,100.00
2022-09-11T01:51:41.772Z,100.00
2022-09-11T01:54:14.712Z,100.00
2022-09-11T01:56:47.766Z,100.00
2022-09-11T01:59:20.803Z,100.00
2022-09-11T02:01:56.335Z,100.00
2022-09-11T02:04:29.897Z,100.00
2022-09-11T02:07:04.174Z,100.00
2022-09-11T02:09:37.582Z,100.00
2022-09-11T02:12:11.290Z,100.00
2022-09-11T02:14:42.782Z,100.00
2022-09-11T02:17:18.976Z,100.00
2022-09-11T02:19:47.229Z,100.00
2022-09-11T02:22:15.227Z,100.00
2022-09-11T02:24:43.214Z,100.00
2022-09-11T02:27:17.062Z,100.00
2022-09-11T02:29:46.769Z,100.00
2022-09-11T02:32:15.025Z,100.00
2022-09-11T02:34:45.585Z,100.00
2022-09-11T02:37:23.262Z,100.00
2022-09-11T02:40:20.705Z,100.00
2022-09-11T02:43:26.851Z,100.00
2022-09-11T02:46:09.776Z,100.00
2022-09-11T02:48:46.957Z,100.00
2022-09-11T02:51:23.032Z,100.00
2022-09-11T02:54:01.882Z,100.00
2022-09-11T02:56:37.199Z,100.00
2022-09-11T02:59:11.858Z,100.00
2022-09-11T03:01:53.443Z,100.00
2022-09-11T03:04:22.680Z,100.00
2022-09-11T03:06:51.262Z,100.00
2022-09-11T03:09:20.117Z,100.00
2022-09-11T03:11:48.178Z,100.00
2022-09-11T03:14:16.383Z,100.00
2022-09-11T03:16:44.349Z,100.00
2022-09-11T03:19:13.652Z,100.00
2022-09-11T03:21:41.950Z,100.00
2022-09-11T03:24:10.449Z,100.00
2022-09-11T03:26:38.807Z,100.00
2022-09-11T03:29:08.565Z,100.00
2022-09-11T03:31:39.264Z,100.00
2022-09-11T03:34:07.854Z,100.00
2022-09-11T03:36:37.639Z,100.00
2022-09-11T03:39:06.158Z,100.00
2022-09-11T03:41:34.143Z,100.00
2022-09-11T03:44:02.452Z,100.00
2022-09-11T03:46:30.514Z,100.00
2022-09-11T03:48:59.637Z,100.00
2022-09-11T03:51:27.645Z,100.00
2022-09-11T03:53:57.253Z,100.00
2022-09-11T03:56:25.259Z,100.00
2022-09-11T03:58:57.185Z,100.00
2022-09-11T04:01:25.320Z,100.00
2022-09-11T04:03:53.655Z,100.00
2022-09-11T04:06:22.150Z,100.00
2022-09-11T04:08:50.060Z,100.00
2022-09-11T04:11:19.466Z,100.00
2022-09-11T04:13:47.436Z,100.00
2022-09-11T04:16:17.543Z,100.00
2022-09-11T04:18:47.077Z,100.00
2022-09-11T04:21:16.805Z,100.00
2022-09-11T04:23:45.671Z,100.00
2022-09-11T04:26:16.426Z,100.00
2022-09-11T04:28:46.203Z,100.00
2022-09-11T04:31:15.965Z,100.00
2022-09-11T04:33:43.995Z,100.00
2022-09-11T04:36:14.180Z,100.00
2022-09-11T04:38:42.300Z,100.00
2022-09-11T04:41:10.417Z,100.00
2022-09-11T04:43:40.205Z,100.00
2022-09-11T04:46:12.730Z,100.00
2022-09-11T04:48:45.101Z,100.00
2022-09-11T04:51:21.456Z,100.00
2022-09-11T04:53:49.491Z,100.00
2022-09-11T04:56:18.927Z,100.00
2022-09-11T04:58:46.986Z,100.00
2022-09-11T05:01:17.918Z,100.00
2022-09-11T05:03:45.926Z,100.00
2022-09-11T05:06:16.502Z,100.00
2022-09-11T05:08:45.538Z,100.00
2022-09-11T05:11:15.075Z,100.00
2022-09-11T05:13:44.145Z,100.00
2022-09-11T05:16:14.221Z,100.00
2022-09-11T05:18:45.303Z,100.00
2022-09-11T05:21:15.179Z,100.00
2022-09-11T05:23:43.907Z,100.00
2022-09-11T05:26:16.194Z,100.00
2022-09-11T05:28:44.250Z,100.00
2022-09-11T05:31:14.151Z,100.00
2022-09-11T05:33:44.157Z,100.00
2022-09-11T05:36:13.913Z,100.00
2022-09-11T05:38:42.984Z,100.00
2022-09-11T05:41:13.786Z,100.00
2022-09-11T05:43:42.635Z,100.00
2022-09-11T05:46:13.893Z,100.00
2022-09-11T05:48:43.670Z,100.00
2022-09-11T05:51:14.041Z,100.00
2022-09-11T05:53:42.344Z,100.00
2022-09-11T05:56:14.113Z,100.00
2022-09-11T05:58:41.993Z,99.97
2022-09-11T06:01:12.521Z,100.00
2022-09-11T06:03:41.021Z,99.24
2022-09-11T06:06:12.450Z,98.26
2022-09-11T06:08:44.272Z,97.02
2022-09-11T06:11:14.153Z,94.93
2022-09-11T06:13:43.660Z,94.92
2022-09-11T06:16:17.818Z,98.39
2022-09-11T06:18:49.466Z,97.91
2022-09-11T06:21:20.829Z,94.18
2022-09-11T06:23:49.474Z,92.11
2022-09-11T06:26:19.719Z,92.43
2022-09-11T06:28:48.234Z,91.82
2022-09-11T06:31:17.697Z,90.30
2022-09-11T06:33:46.648Z,88.74
2022-09-11T06:36:16.387Z,86.05
2022-09-11T06:38:46.372Z,85.72
2022-09-11T06:41:16.145Z,84.64
2022-09-11T06:43:45.184Z,89.60
2022-09-11T06:46:14.546Z,90.15
2022-09-11T06:48:43.438Z,81.57
2022-09-11T06:51:12.927Z,81.96
2022-09-11T06:53:42.097Z,80.51
2022-09-11T06:56:13.986Z,80.52
2022-09-11T06:58:42.355Z,84.00
2022-09-11T07:01:13.127Z,81.87
2022-09-11T07:03:45.145Z,81.93
2022-09-11T07:06:13.590Z,80.15
2022-09-11T07:08:41.786Z,79.62
2022-09-11T07:11:13.682Z,77.55
2022-09-11T07:13:42.319Z,74.42
2022-09-11T07:16:12.680Z,76.55
2022-09-11T07:18:42.300Z,76.19
2022-09-11T07:21:12.482Z,74.45
2022-09-11T07:23:41.699Z,72.55
2022-09-11T07:26:12.184Z,72.56
2022-09-11T07:28:42.141Z,73.71
2022-09-11T07:31:12.316Z,69.57
2022-09-11T07:33:42.882Z,70.68
2022-09-11T07:36:12.139Z,69.76
2022-09-11T07:38:41.681Z,71.68
2022-09-11T07:41:10.516Z,71.51
2022-09-11T07:43:39.610Z,69.70
2022-09-11T07:46:11.246Z,68.05
2022-09-11T07:48:40.998Z,70.97
2022-09-11T07:51:11.127Z,71.59
2022-09-11T07:53:40.995Z,71.62
2022-09-11T07:56:10.710Z,65.92
2022-09-11T07:58:40.218Z,68.57
2022-09-11T08:01:12.590Z,70.31
2022-09-11T08:03:43.135Z,65.35
2022-09-11T08:06:16.886Z,65.87
2022-09-11T08:08:48.509Z,71.21
2022-09-11T08:11:18.437Z,65.02
2022-09-11T08:13:50.943Z,66.87
2022-09-11T08:16:21.165Z,68.87
2022-09-11T08:18:49.639Z,67.08
2022-09-11T08:21:17.885Z,63.16
2022-09-11T08:23:46.677Z,65.49
2022-09-11T08:26:17.594Z,63.73
2022-09-11T08:28:45.866Z,60.68
2022-09-11T08:31:15.069Z,61.75
2022-09-11T08:33:44.911Z,62.48
2022-09-11T08:36:14.754Z,61.58
2022-09-11T08:38:43.417Z,61.59
2022-09-11T08:41:15.229Z,58.61
2022-09-11T08:43:50.924Z,62.97
2022-09-11T08:46:22.531Z,62.20
2022-09-11T08:48:59.782Z,61.02
2022-09-11T08:51:27.993Z,62.28
2022-09-11T08:53:57.443Z,56.36
2022-09-11T08:56:29.874Z,58.50
2022-09-11T08:59:13.233Z,56.05
2022-09-11T09:01:48.583Z,58.59
2022-09-11T09:04:41.469Z,55.39
2022-09-11T09:07:20.738Z,55.22
2022-09-11T09:10:00.374Z,55.43
2022-09-11T09:12:39.462Z,57.13
2022-09-11T09:15:19.829Z,55.62
2022-09-11T09:17:53.830Z,55.23
2022-09-11T09:20:30.259Z,55.66
2022-09-11T09:23:03.035Z,55.72
2022-09-11T09:25:35.527Z,55.31
2022-09-11T09:28:08.647Z,52.32
2022-09-11T09:30:41.038Z,49.89
2022-09-11T09:33:30.892Z,50.64
2022-09-11T09:36:07.757Z,49.70
2022-09-11T09:38:35.700Z,52.74
2022-09-11T09:41:18.006Z,50.93
2022-09-11T09:43:57.444Z,48.55
2022-09-11T09:46:36.118Z,47.76
2022-09-11T09:49:04.197Z,46.25
2022-09-11T09:51:35.659Z,47.19
2022-09-11T09:54:03.611Z,49.06
2022-09-11T09:56:37.759Z,47.89
2022-09-11T09:59:18.229Z,45.67
2022-09-11T10:01:48.538Z,46.46
2022-09-11T10:04:19.790Z,45.54
2022-09-11T10:06:52.053Z,47.52
2022-09-11T10:09:25.533Z,52.20
2022-09-11T10:11:56.040Z,50.87
2022-09-11T10:14:49.904Z,50.12
2022-09-11T10:17:22.595Z,46.55
2022-09-11T10:19:51.935Z,45.40
2022-09-11T10:22:30.356Z,44.10
2022-09-11T10:25:13.126Z,49.83
2022-09-11T10:27:47.077Z,44.86
2022-09-11T10:30:33.947Z,47.25
2022-09-11T10:33:06.353Z,45.39
2022-09-11T10:35:36.765Z,43.00
2022-09-11T10:38:18.325Z,46.65
2022-09-11T10:40:58.318Z,49.96
2022-09-11T10:43:33.139Z,49.90
2022-09-11T10:46:06.991Z,49.15
2022-09-11T10:48:35.398Z,47.78
2022-09-11T10:51:07.958Z,46.03
2022-09-11T10:53:54.885Z,51.17
2022-09-11T10:56:24.421Z,46.97
2022-09-11T10:58:56.101Z,45.70
2022-09-11T11:01:24.183Z,43.66
2022-09-11T11:03:52.462Z,44.92
2022-09-11T11:06:34.469Z,45.47
2022-09-11T11:09:17.406Z,45.35
2022-09-11T11:11:56.915Z,45.00
2022-09-11T11:14:55.965Z,47.47
2022-09-11T11:17:37.766Z,44.59
2022-09-11T11:20:21.526Z,44.06
2022-09-11T11:23:06.030Z,44.78
2022-09-11T11:25:46.328Z,41.95
2022-09-11T11:28:51.461Z,48.13
2022-09-11T11:31:40.311Z,44.98
2022-09-11T11:34:37.248Z,47.52
2022-09-11T11:37:12.915Z,45.55
2022-09-11T11:39:53.434Z,47.46
2022-09-11T11:42:27.722Z,44.79
2022-09-11T11:45:03.979Z,48.30
2022-09-11T11:47:35.919Z,41.79
2022-09-11T11:50:12.392Z,51.86
2022-09-11T11:52:51.135Z,48.87
2022-09-11T11:55:22.684Z,53.25
2022-09-11T11:58:00.344Z,54.77
2022-09-11T12:00:30.064Z,44.17
2022-09-11T12:03:02.770Z,46.41
2022-09-11T12:05:33.959Z,48.24
2022-09-11T12:08:02.548Z,44.75
2022-09-11T12:10:34.544Z,49.76
2022-09-11T12:13:07.971Z,48.65
2022-09-11T12:15:37.667Z,57.09
2022-09-11T12:18:18.766Z,51.50
2022-09-11T12:20:47.295Z,52.92
2022-09-11T12:23:35.752Z,51.91
2022-09-11T12:26:18.671Z,45.45
2022-09-11T12:28:48.863Z,46.63
2022-09-11T12:31:18.487Z,42.33
2022-09-11T12:33:55.530Z,45.80
2022-09-11T12:36:31.029Z,45.85
2022-09-11T12:39:03.169Z,45.55
2022-09-11T12:41:33.899Z,44.19
2022-09-11T12:44:04.939Z,46.46
2022-09-11T12:47:16.682Z,47.45
2022-09-11T12:49:55.271Z,50.64
2022-09-11T12:52:34.035Z,50.94
2022-09-11T12:55:09.045Z,50.54
2022-09-11T12:57:40.902Z,49.85
2022-09-11T13:00:23.867Z,45.80
2022-09-11T13:02:56.972Z,41.82
2022-09-11T13:05:28.562Z,44.21
2022-09-11T13:08:00.886Z,44.83
2022-09-11T13:10:33.687Z,48.41
2022-09-11T13:13:03.753Z,49.06
2022-09-11T13:15:38.776Z,42.21
2022-09-11T13:18:31.153Z,49.96
2022-09-11T13:21:13.344Z,47.89
2022-09-11T13:23:43.141Z,52.18
2022-09-11T13:26:17.032Z,52.07
2022-09-11T13:28:49.439Z,44.96
2022-09-11T13:31:21.522Z,52.52
2022-09-11T13:33:51.491Z,47.49
2022-09-11T13:36:24.245Z,53.53
2022-09-11T13:38:56.132Z,52.96
2022-09-11T13:41:29.847Z,49.62
2022-09-11T13:44:00.097Z,50.68
2022-09-11T13:46:31.698Z,49.76
2022-09-11T13:49:15.194Z,43.85
2022-09-11T13:51:46.357Z,51.51
2022-09-11T13:54:17.092Z,52.36
2022-09-11T13:57:11.745Z,50.73
2022-09-11T13:59:44.985Z,52.90
2022-09-11T14:02:48.535Z,51.85
2022-09-11T14:05:22.097Z,51.23
2022-09-11T14:07:57.329Z,49.92
2022-09-11T14:10:29.348Z,52.45
2022-09-11T14:13:06.392Z,51.13
2022-09-11T14:15:41.105Z,55.38
2022-09-11T14:18:18.354Z,56.12
2022-09-11T14:20:48.159Z,50.08
2022-09-11T14:23:21.740Z,53.39
2022-09-11T14:26:12.679Z,51.64
2022-09-11T14:28:47.921Z,53.50
2022-09-11T14:31:29.477Z,53.15
2022-09-11T14:34:18.533Z,48.51
2022-09-11T14:37:07.929Z,51.35
2022-09-11T14:39:40.639Z,51.30
2022-09-11T14:42:10.402Z,54.14
2022-09-11T14:44:40.466Z,55.34
2022-09-11T14:47:13.107Z,53.33
2022-09-11T14:49:41.002Z,51.82
2022-09-11T14:52:13.743Z,52.97
2022-09-11T14:54:43.063Z,52.29
2022-09-11T14:57:17.189Z,57.22
2022-09-11T14:59:47.865Z,55.55
2022-09-11T15:02:19.051Z,53.77
2022-09-11T15:04:47.314Z,55.69
2022-09-11T15:07:18.838Z,55.83
2022-09-11T15:09:47.490Z,58.31
2022-09-11T15:12:16.552Z,54.87
2022-09-11T15:14:56.371Z,56.56
2022-09-11T15:17:30.586Z,55.67
2022-09-11T15:20:00.421Z,51.86
2022-09-11T15:22:31.428Z,49.04
2022-09-11T15:25:00.120Z,51.54
2022-09-11T15:27:28.313Z,50.87
2022-09-11T15:29:56.439Z,51.21
2022-09-11T15:32:24.530Z,51.31
2022-09-11T15:34:54.080Z,51.68
2022-09-11T15:37:22.123Z,50.35
2022-09-11T15:39:52.539Z,51.28
2022-09-11T15:42:20.686Z,51.19
2022-09-11T15:44:50.910Z,53.12
2022-09-11T15:47:18.855Z,52.55
2022-09-11T15:49:48.049Z,52.08
2022-09-11T15:52:16.238Z,51.29
2022-09-11T15:54:45.688Z,51.01
2022-09-11T15:57:14.979Z,52.29
2022-09-11T15:59:43.159Z,55.00
2022-09-11T16:02:12.641Z,55.42
2022-09-11T16:04:40.600Z,58.42
2022-09-11T16:07:08.524Z,56.96
2022-09-11T16:09:36.501Z,60.01
2022-09-11T16:12:05.077Z,58.56
2022-09-11T16:14:36.400Z,55.04
2022-09-11T16:17:06.673Z,58.69
2022-09-11T16:19:35.368Z,61.29
2022-09-11T16:22:05.201Z,57.46
2022-09-11T16:24:37.693Z,57.03
2022-09-11T16:27:07.809Z,56.79
2022-09-11T16:30:15.575Z,58.22
2022-09-11T16:32:39.391Z,58.07
2022-09-11T16:35:13.338Z,58.92
2022-09-11T16:37:41.484Z,56.63
2022-09-11T16:40:10.516Z,53.60
2022-09-11T16:42:38.536Z,54.60
2022-09-11T16:45:08.771Z,55.56
2022-09-11T16:47:37.062Z,56.43
2022-09-11T16:50:07.326Z,55.20
2022-09-11T16:52:36.263Z,59.32
2022-09-11T16:55:05.128Z,57.62
2022-09-11T16:57:33.621Z,55.48
2022-09-11T17:00:02.077Z,58.10
2022-09-11T17:02:31.514Z,57.44
2022-09-11T17:04:59.453Z,56.54
2022-09-11T17:07:27.453Z,58.00
2022-09-11T17:09:55.369Z,59.39
2022-09-11T17:12:23.498Z,58.40
2022-09-11T17:14:51.442Z,59.13
2022-09-11T17:17:19.420Z,60.46
2022-09-11T17:19:51.211Z,63.14
2022-09-11T17:22:19.285Z,61.61
2022-09-11T17:24:47.200Z,60.32
2022-09-11T17:27:15.194Z,59.85
2022-09-11T17:29:44.686Z,59.48
2022-09-11T17:32:31.199Z,60.99
2022-09-11T17:35:00.656Z,65.83
2022-09-11T17:37:28.847Z,63.12
2022-09-11T17:39:58.103Z,64.75
2022-09-11T17:42:28.793Z,66.58
2022-09-11T17:44:57.000Z,65.85
2022-09-11T17:47:24.919Z,61.94
2022-09-11T17:49:52.901Z,65.61
2022-09-11T17:52:22.219Z,65.54
2022-09-11T17:54:50.174Z,65.40
2022-09-11T17:57:18.102Z,64.99
2022-09-11T17:59:49.984Z,65.55
2022-09-11T18:02:18.396Z,65.25
2022-09-11T18:04:48.281Z,64.94
2022-09-11T18:07:16.518Z,66.87
2022-09-11T18:09:47.057Z,66.79
2022-09-11T18:12:15.105Z,67.72
2022-09-11T18:14:44.027Z,68.17
2022-09-11T18:17:12.070Z,70.42
2022-09-11T18:19:40.422Z,69.49
2022-09-11T18:22:09.785Z,70.10
2022-09-11T18:24:39.795Z,70.85
2022-09-11T18:27:10.308Z,68.94
2022-09-11T18:29:40.068Z,70.24
2022-09-11T18:32:10.196Z,68.69
2022-09-11T18:34:38.297Z,69.25
2022-09-11T18:37:07.662Z,69.04
2022-09-11T18:39:35.722Z,69.42
2022-09-11T18:42:06.346Z,69.58
2022-09-11T18:44:35.743Z,69.73
2022-09-11T18:47:03.859Z,66.44
2022-09-11T18:49:31.834Z,67.95
2022-09-11T18:52:00.512Z,69.36
2022-09-11T18:54:30.068Z,69.20
2022-09-11T18:57:00.032Z,70.62
2022-09-11T18:59:28.480Z,68.91
2022-09-11T19:01:58.051Z,69.81
2022-09-11T19:04:27.031Z,68.87
2022-09-11T19:06:55.037Z,70.53
2022-09-11T19:09:22.969Z,70.43
2022-09-11T19:11:52.468Z,69.83
2022-09-11T19:14:21.273Z,71.45
2022-09-11T19:16:49.474Z,71.30
2022-09-11T19:19:18.790Z,72.70
2022-09-11T19:21:46.898Z,73.51
2022-09-11T19:24:15.122Z,72.16
2022-09-11T19:26:45.231Z,72.31
2022-09-11T19:29:15.923Z,71.20
2022-09-11T19:31:44.023Z,71.35
2022-09-11T19:34:13.139Z,71.53
2022-09-11T19:36:42.698Z,72.47
2022-09-11T19:39:12.450Z,74.71
2022-09-11T19:41:41.292Z,72.71
2022-09-11T19:44:12.210Z,72.55
2022-09-11T19:46:41.163Z,75.13
2022-09-11T19:49:11.267Z,73.68
2022-09-11T19:51:41.161Z,73.22
2022-09-11T19:54:13.001Z,73.79
2022-09-11T19:56:42.544Z,74.37
2022-09-11T19:59:11.170Z,72.57
2022-09-11T20:01:39.185Z,73.29
2022-09-11T20:04:07.332Z,74.64
2022-09-11T20:06:36.494Z,74.81
2022-09-11T20:09:30.430Z,75.98
2022-09-11T20:11:56.066Z,74.23
2022-09-11T20:14:24.109Z,75.28
2022-09-11T20:16:52.126Z,75.09
2022-09-11T20:19:20.838Z,73.08
2022-09-11T20:21:48.785Z,71.81
2022-09-11T20:24:17.202Z,72.92
2022-09-11T20:26:45.160Z,72.26
2022-09-11T20:29:16.254Z,72.93
2022-09-11T20:31:49.056Z,74.49
2022-09-11T20:34:17.522Z,74.85
2022-09-11T20:36:45.529Z,75.84
2022-09-11T20:39:15.479Z,75.93
2022-09-11T20:41:43.832Z,76.72
2022-09-11T20:44:11.766Z,76.36
2022-09-11T20:46:41.380Z,76.04
2022-09-11T20:49:09.352Z,76.08
2022-09-11T20:51:37.305Z,77.00
2022-09-11T20:54:05.503Z,76.98
2022-09-11T20:56:33.470Z,77.65
2022-09-11T20:59:01.524Z,77.28
2022-09-11T21:01:32.563Z,80.60
2022-09-11T21:04:03.732Z,79.80
2022-09-11T21:06:34.177Z,80.90
2022-09-11T21:09:05.679Z,83.31
2022-09-11T21:11:34.833Z,84.94
2022-09-11T21:14:02.799Z,85.83
2022-09-11T21:16:30.867Z,87.10
2022-09-11T21:19:01.690Z,88.46
2022-09-11T21:21:30.680Z,87.26
2022-09-11T21:24:01.327Z,87.02
2022-09-11T21:26:30.672Z,86.39
2022-09-11T21:28:59.488Z,86.44
2022-09-11T21:31:27.784Z,86.23
2022-09-11T21:33:55.922Z,87.20
2022-09-11T21:36:25.412Z,88.16
2022-09-11T21:38:53.465Z,88.13
2022-09-11T21:41:21.363Z,88.30
2022-09-11T21:43:49.376Z,88.45
2022-09-11T21:46:17.369Z,89.01
2022-09-11T21:48:45.362Z,88.74
2022-09-11T21:51:15.802Z,88.94
2022-09-11T21:53:46.996Z,88.17
2022-09-11T21:56:24.998Z,87.98
2022-09-11T21:58:53.422Z,89.24
2022-09-11T22:01:22.258Z,88.72
2022-09-11T22:03:50.969Z,89.40
2022-09-11T22:06:20.449Z,89.84
2022-09-11T22:08:49.794Z,88.79
2022-09-11T22:11:18.345Z,89.12
2022-09-11T22:13:47.707Z,87.46
2022-09-11T22:16:18.503Z,88.13
2022-09-11T22:18:49.989Z,88.78
2022-09-11T22:21:18.122Z,89.35
2022-09-11T22:23:46.277Z,88.04
2022-09-11T22:26:17.498Z,87.73
2022-09-11T22:28:45.694Z,87.02
2022-09-11T22:31:20.078Z,89.90
2022-09-11T22:33:48.147Z,90.22
2022-09-11T22:36:18.421Z,90.90
2022-09-11T22:38:46.645Z,89.36
2022-09-11T22:41:16.083Z,90.13
2022-09-11T22:43:44.266Z,88.89
2022-09-11T22:46:12.650Z,89.68
2022-09-11T22:48:40.873Z,88.52
2022-09-11T22:51:09.354Z,88.08
2022-09-11T22:53:39.551Z,88.30
2022-09-11T22:56:09.480Z,90.23
2022-09-11T22:58:39.502Z,87.48
2022-09-11T23:01:10.179Z,88.17
2022-09-11T23:03:38.157Z,86.40
2022-09-11T23:06:23.458Z,88.46
2022-09-11T23:08:52.684Z,89.39
2022-09-11T23:11:21.356Z,89.20
2022-09-11T23:13:52.454Z,86.52
2022-09-11T23:16:22.665Z,87.99
2022-09-11T23:18:54.841Z,88.05
2022-09-11T23:21:23.101Z,87.43
2022-09-11T23:23:54.474Z,88.61
2022-09-11T23:26:23.959Z,86.47
2022-09-11T23:28:54.075Z,88.49
2022-09-11T23:31:24.919Z,86.92
2022-09-11T23:33:54.419Z,86.86
2022-09-11T23:36:23.598Z,86.53
2022-09-11T23:38:52.238Z,88.10
2022-09-11T23:41:20.502Z,87.41
2022-09-11T23:43:49.050Z,88.03
2022-09-11T23:46:18.757Z,86.11
2022-09-11T23:48:47.213Z,87.33
2022-09-11T23:51:15.736Z,88.33
2022-09-11T23:53:45.404Z,87.03
2022-09-11T23:56:15.078Z,89.70
2022-09-11T23:58:44.349Z,88.38
